sensor_id;sensor_type;location;lat;lon;timestamp;pressure;altitude;pressure_sealevel;temperature;humidity
32873;BME280;19224;52.462;16.898;2023-04-25T00:01:56;99194.28;;;10.10;100.00
32873;BME280;19224;52.462;16.898;2023-04-25T00:04:28;99208.11;;;10.04;100.00
32873;BME280;19224;52.462;16.898;2023-04-25T00:06:59;99194.22;;;9.96;100.00
32873;BME280;19224;52.462;16.898;2023-04-25T00:09:32;99188.64;;;9.92;100.00
32873;BME280;19224;52.462;16.898;2023-04-25T00:12:02;99195.33;;;9.85;100.00
32873;BME280;19224;52.462;16.898;2023-04-25T00:14:32;99204.86;;;9.90;100.00
32873;BME280;19224;52.462;16.898;2023-04-25T00:17:04;99188.03;;;9.80;100.00
32873;BME280;19224;52.462;16.898;2023-04-25T00:19:34;99192.98;;;9.72;100.00
32873;BME280;19224;52.462;16.898;2023-04-25T00:22:06;99200.36;;;9.68;100.00
32873;BME280;19224;52.462;16.898;2023-04-25T00:24:36;99192.87;;;9.66;100.00
32873;BME280;19224;52.462;16.898;2023-04-25T00:27:06;99206.42;;;9.72;100.00
32873;BME280;19224;52.462;16.898;2023-04-25T00:29:36;99201.01;;;9.65;100.00
32873;BME280;19224;52.462;16.898;2023-04-25T00:32:06;99204.03;;;9.52;100.00
32873;BME280;19224;52.462;16.898;2023-04-25T00:34:36;99205.84;;;9.67;100.00
32873;BME280;19224;52.462;16.898;2023-04-25T00:37:06;99206.23;;;9.68;100.00
32873;BME280;19224;52.462;16.898;2023-04-25T00:39:37;99205.42;;;9.59;100.00
32873;BME280;19224;52.462;16.898;2023-04-25T00:42:08;99208.83;;;9.54;100.00
32873;BME280;19224;52.462;16.898;2023-04-25T00:44:38;99217.90;;;9.60;100.00
32873;BME280;19224;52.462;16.898;2023-04-25T00:47:10;99208.25;;;9.49;100.00
32873;BME280;19224;52.462;16.898;2023-04-25T00:49:41;99208.81;;;9.47;100.00
32873;BME280;19224;52.462;16.898;2023-04-25T00:52:12;99211.45;;;9.40;100.00
32873;BME280;19224;52.462;16.898;2023-04-25T00:54:42;99211.00;;;9.41;100.00
32873;BME280;19224;52.462;16.898;2023-04-25T00:57:13;99205.52;;;9.42;100.00
32873;BME280;19224;52.462;16.898;2023-04-25T00:59:46;99211.64;;;9.37;100.00
32873;BME280;19224;52.462;16.898;2023-04-25T01:02:16;99216.63;;;9.36;100.00
32873;BME280;19224;52.462;16.898;2023-04-25T01:04:48;99217.66;;;9.34;100.00
32873;BME280;19224;52.462;16.898;2023-04-25T01:07:18;99212.78;;;9.33;100.00
32873;BME280;19224;52.462;16.898;2023-04-25T01:09:51;99208.30;;;9.41;100.00
32873;BME280;19224;52.462;16.898;2023-04-25T01:12:21;99211.32;;;9.50;100.00
32873;BME280;19224;52.462;16.898;2023-04-25T01:14:52;99213.70;;;9.47;100.00
32873;BME280;19224;52.462;16.898;2023-04-25T01:17:23;99206.66;;;9.38;100.00
32873;BME280;19224;52.462;16.898;2023-04-25T01:19:53;99211.45;;;9.40;100.00
32873;BME280;19224;52.462;16.898;2023-04-25T01:22:23;99204.30;;;9.32;100.00
32873;BME280;19224;52.462;16.898;2023-04-25T01:24:54;99207.09;;;9.31;100.00
32873;BME280;19224;52.462;16.898;2023-04-25T01:27:26;99208.13;;;9.28;100.00
32873;BME280;19224;52.462;16.898;2023-04-25T01:29:57;99215.86;;;9.34;100.00
32873;BME280;19224;52.462;16.898;2023-04-25T01:32:28;99206.33;;;9.29;100.00
32873;BME280;19224;52.462;16.898;2023-04-25T01:35:01;99206.73;;;9.37;100.00
32873;BME280;19224;52.462;16.898;2023-04-25T01:37:31;99211.13;;;9.46;100.00
32873;BME280;19224;52.462;16.898;2023-04-25T01:40:02;99214.52;;;9.34;100.00
32873;BME280;19224;52.462;16.898;2023-04-25T01:42:36;99209.41;;;9.37;100.00
32873;BME280;19224;52.462;16.898;2023-04-25T01:45:08;99215.34;;;9.28;100.00
32873;BME280;19224;52.462;16.898;2023-04-25T01:47:40;99217.34;;;9.31;100.00
32873;BME280;19224;52.462;16.898;2023-04-25T01:50:12;99216.52;;;9.38;100.00
32873;BME280;19224;52.462;16.898;2023-04-25T01:52:43;99213.94;;;9.36;100.00
32873;BME280;19224;52.462;16.898;2023-04-25T01:55:13;99214.52;;;9.34;100.00
32873;BME280;19224;52.462;16.898;2023-04-25T01:57:43;99215.80;;;9.27;100.00
32873;BME280;19224;52.462;16.898;2023-04-25T02:00:14;99216.06;;;9.23;100.00
32873;BME280;19224;52.462;16.898;2023-04-25T02:02:45;99219.23;;;9.22;100.00
32873;BME280;19224;52.462;16.898;2023-04-25T02:05:15;99225.51;;;9.14;100.00
32873;BME280;19224;52.462;16.898;2023-04-25T02:07:46;99221.48;;;9.14;100.00
32873;BME280;19224;52.462;16.898;2023-04-25T02:10:17;99228.89;;;9.18;100.00
32873;BME280;19224;52.462;16.898;2023-04-25T02:12:47;99226.67;;;9.17;100.00
32873;BME280;19224;52.462;16.898;2023-04-25T02:15:18;99220.78;;;9.11;100.00
32873;BME280;19224;52.462;16.898;2023-04-25T02:17:48;99228.24;;;9.06;100.00
32873;BME280;19224;52.462;16.898;2023-04-25T02:20:25;99225.81;;;9.01;100.00
32873;BME280;19224;52.462;16.898;2023-04-25T02:22:51;99231.39;;;9.05;100.00
32873;BME280;19224;52.462;16.898;2023-04-25T02:25:22;99235.35;;;8.98;100.00
32873;BME280;19224;52.462;16.898;2023-04-25T02:27:52;99231.25;;;9.00;100.00
32873;BME280;19224;52.462;16.898;2023-04-25T02:30:23;99230.38;;;8.99;100.00
32873;BME280;19224;52.462;16.898;2023-04-25T02:32:53;99234.37;;;8.92;100.00
32873;BME280;19224;52.462;16.898;2023-04-25T02:35:24;99227.41;;;8.88;100.00
32873;BME280;19224;52.462;16.898;2023-04-25T02:37:54;99232.53;;;8.93;100.00
32873;BME280;19224;52.462;16.898;2023-04-25T02:40:24;99233.73;;;8.87;100.00
32873;BME280;19224;52.462;16.898;2023-04-25T02:42:55;99231.08;;;8.79;100.00
32873;BME280;19224;52.462;16.898;2023-04-25T02:45:25;99227.59;;;8.85;100.00
32873;BME280;19224;52.462;16.898;2023-04-25T02:47:55;99226.63;;;8.86;100.00
32873;BME280;19224;52.462;16.898;2023-04-25T02:50:25;99223.95;;;8.86;100.00
32873;BME280;19224;52.462;16.898;2023-04-25T02:52:56;99222.00;;;8.81;100.00
32873;BME280;19224;52.462;16.898;2023-04-25T02:55:26;99217.91;;;8.74;100.00
32873;BME280;19224;52.462;16.898;2023-04-25T02:57:56;99224.30;;;8.72;100.00
32873;BME280;19224;52.462;16.898;2023-04-25T03:00:27;99221.09;;;8.65;100.00
32873;BME280;19224;52.462;16.898;2023-04-25T03:02:58;99211.02;;;8.62;100.00
32873;BME280;19224;52.462;16.898;2023-04-25T03:05:29;99213.28;;;8.61;100.00
32873;BME280;19224;52.462;16.898;2023-04-25T03:07:59;99212.51;;;8.59;100.00
32873;BME280;19224;52.462;16.898;2023-04-25T03:10:29;99212.44;;;8.60;100.00
32873;BME280;19224;52.462;16.898;2023-04-25T03:13:00;99221.30;;;8.54;100.00
32873;BME280;19224;52.462;16.898;2023-04-25T03:15:30;99212.75;;;8.54;100.00
32873;BME280;19224;52.462;16.898;2023-04-25T03:18:00;99218.97;;;8.63;100.00
32873;BME280;19224;52.462;16.898;2023-04-25T03:20:31;99211.88;;;8.62;100.00
32873;BME280;19224;52.462;16.898;2023-04-25T03:23:01;99216.22;;;8.65;100.00
32873;BME280;19224;52.462;16.898;2023-04-25T03:25:31;99213.99;;;8.64;100.00
32873;BME280;19224;52.462;16.898;2023-04-25T03:28:02;99207.53;;;8.60;100.00
32873;BME280;19224;52.462;16.898;2023-04-25T03:30:32;99211.27;;;8.57;100.00
32873;BME280;19224;52.462;16.898;2023-04-25T03:33:03;99201.48;;;8.56;100.00
32873;BME280;19224;52.462;16.898;2023-04-25T03:35:33;99202.41;;;8.55;100.00
32873;BME280;19224;52.462;16.898;2023-04-25T03:38:03;99208.02;;;8.59;100.00
32873;BME280;19224;52.462;16.898;2023-04-25T03:40:34;99204.98;;;8.50;100.00
32873;BME280;19224;52.462;16.898;2023-04-25T03:43:04;99204.88;;;8.51;100.00
32873;BME280;19224;52.462;16.898;2023-04-25T03:45:34;99208.66;;;8.56;100.00
32873;BME280;19224;52.462;16.898;2023-04-25T03:48:05;99205.73;;;8.60;100.00
32873;BME280;19224;52.462;16.898;2023-04-25T03:50:35;99207.00;;;8.62;100.00
32873;BME280;19224;52.462;16.898;2023-04-25T03:53:05;99213.04;;;8.65;100.00
32873;BME280;19224;52.462;16.898;2023-04-25T03:55:35;99227.97;;;8.62;100.00
32873;BME280;19224;52.462;16.898;2023-04-25T03:58:05;99219.75;;;8.65;100.00
32873;BME280;19224;52.462;16.898;2023-04-25T04:00:37;99223.73;;;8.58;100.00
32873;BME280;19224;52.462;16.898;2023-04-25T04:03:07;99224.05;;;8.52;100.00
32873;BME280;19224;52.462;16.898;2023-04-25T04:05:37;99232.09;;;8.52;100.00
32873;BME280;19224;52.462;16.898;2023-04-25T04:08:09;99227.37;;;8.57;100.00
32873;BME280;19224;52.462;16.898;2023-04-25T04:10:39;99229.10;;;8.58;100.00
32873;BME280;19224;52.462;16.898;2023-04-25T04:13:10;99221.97;;;8.66;100.00
32873;BME280;19224;52.462;16.898;2023-04-25T04:15:40;99219.36;;;8.64;100.00
32873;BME280;19224;52.462;16.898;2023-04-25T04:18:11;99227.66;;;8.68;100.00
32873;BME280;19224;52.462;16.898;2023-04-25T04:20:41;99233.80;;;8.70;100.00
32873;BME280;19224;52.462;16.898;2023-04-25T04:23:12;99234.68;;;8.62;100.00
32873;BME280;19224;52.462;16.898;2023-04-25T04:25:42;99236.66;;;8.67;100.00
32873;BME280;19224;52.462;16.898;2023-04-25T04:28:12;99244.78;;;8.66;100.00
32873;BME280;19224;52.462;16.898;2023-04-25T04:30:43;99242.63;;;8.72;100.00
32873;BME280;19224;52.462;16.898;2023-04-25T04:33:15;99240.02;;;8.79;100.00
32873;BME280;19224;52.462;16.898;2023-04-25T04:35:47;99243.94;;;8.81;100.00
32873;BME280;19224;52.462;16.898;2023-04-25T04:38:17;99238.68;;;8.79;100.00
32873;BME280;19224;52.462;16.898;2023-04-25T04:40:49;99252.91;;;8.88;100.00
32873;BME280;19224;52.462;16.898;2023-04-25T04:43:19;99245.88;;;8.94;100.00
32873;BME280;19224;52.462;16.898;2023-04-25T04:45:51;99251.08;;;8.97;100.00
32873;BME280;19224;52.462;16.898;2023-04-25T04:48:23;99250.23;;;8.88;100.00
32873;BME280;19224;52.462;16.898;2023-04-25T04:50:53;99244.54;;;8.94;100.00
32873;BME280;19224;52.462;16.898;2023-04-25T04:53:24;99258.63;;;9.06;100.00
32873;BME280;19224;52.462;16.898;2023-04-25T04:55:54;99254.60;;;9.06;100.00
32873;BME280;19224;52.462;16.898;2023-04-25T04:58:25;99253.47;;;9.10;100.00
32873;BME280;19224;52.462;16.898;2023-04-25T05:00:57;99254.42;;;9.09;100.00
32873;BME280;19224;52.462;16.898;2023-04-25T05:03:27;99252.30;;;9.07;100.00
32873;BME280;19224;52.462;16.898;2023-04-25T05:05:57;99253.35;;;9.20;100.00
32873;BME280;19224;52.462;16.898;2023-04-25T05:08:27;99262.72;;;9.13;100.00
32873;BME280;19224;52.462;16.898;2023-04-25T05:10:57;99246.81;;;9.17;100.00
32873;BME280;19224;52.462;16.898;2023-04-25T05:13:28;99251.94;;;9.22;100.00
32873;BME280;19224;52.462;16.898;2023-04-25T05:15:58;99246.19;;;9.36;100.00
32873;BME280;19224;52.462;16.898;2023-04-25T05:18:29;99250.23;;;9.43;100.00
32873;BME280;19224;52.462;16.898;2023-04-25T05:21:01;99249.13;;;9.47;100.00
32873;BME280;19224;52.462;16.898;2023-04-25T05:23:33;99254.27;;;9.43;100.00
32873;BME280;19224;52.462;16.898;2023-04-25T05:26:04;99259.70;;;9.50;100.00
32873;BME280;19224;52.462;16.898;2023-04-25T05:28:34;99258.66;;;9.52;100.00
32873;BME280;19224;52.462;16.898;2023-04-25T05:31:05;99260.97;;;9.51;100.00
32873;BME280;19224;52.462;16.898;2023-04-25T05:33:36;99259.95;;;9.61;100.00
32873;BME280;19224;52.462;16.898;2023-04-25T05:36:07;99260.95;;;9.67;100.00
32873;BME280;19224;52.462;16.898;2023-04-25T05:38:37;99265.63;;;9.63;100.00
32873;BME280;19224;52.462;16.898;2023-04-25T05:41:08;99264.98;;;9.67;100.00
32873;BME280;19224;52.462;16.898;2023-04-25T05:43:38;99265.88;;;9.74;100.00
32873;BME280;19224;52.462;16.898;2023-04-25T05:46:10;99262.17;;;9.84;100.00
32873;BME280;19224;52.462;16.898;2023-04-25T05:48:41;99262.68;;;9.90;100.00
32873;BME280;19224;52.462;16.898;2023-04-25T05:51:11;99259.53;;;9.91;100.00
32873;BME280;19224;52.462;16.898;2023-04-25T05:53:41;99261.72;;;10.07;100.00
32873;BME280;19224;52.462;16.898;2023-04-25T05:56:12;99263.95;;;9.99;100.00
32873;BME280;19224;52.462;16.898;2023-04-25T05:58:42;99268.06;;;10.06;100.00
32873;BME280;19224;52.462;16.898;2023-04-25T06:01:13;99276.25;;;10.11;100.00
32873;BME280;19224;52.462;16.898;2023-04-25T06:03:43;99273.48;;;9.97;100.00
32873;BME280;19224;52.462;16.898;2023-04-25T06:06:13;99272.40;;;9.93;100.00
32873;BME280;19224;52.462;16.898;2023-04-25T06:08:44;99270.75;;;10.06;100.00
32873;BME280;19224;52.462;16.898;2023-04-25T06:11:14;99273.70;;;10.24;100.00
32873;BME280;19224;52.462;16.898;2023-04-25T06:13:45;99272.02;;;10.07;100.00
32873;BME280;19224;52.462;16.898;2023-04-25T06:16:16;99278.52;;;10.26;100.00
32873;BME280;19224;52.462;16.898;2023-04-25T06:18:46;99283.78;;;10.27;100.00
32873;BME280;19224;52.462;16.898;2023-04-25T06:21:16;99274.44;;;10.19;100.00
32873;BME280;19224;52.462;16.898;2023-04-25T06:23:46;99275.66;;;10.36;100.00
32873;BME280;19224;52.462;16.898;2023-04-25T06:26:16;99276.45;;;10.52;100.00
32873;BME280;19224;52.462;16.898;2023-04-25T06:28:47;99281.07;;;10.50;100.00
32873;BME280;19224;52.462;16.898;2023-04-25T06:31:17;99274.84;;;10.70;100.00
32873;BME280;19224;52.462;16.898;2023-04-25T06:33:47;99271.94;;;10.59;100.00
32873;BME280;19224;52.462;16.898;2023-04-25T06:36:17;99273.20;;;10.61;100.00
32873;BME280;19224;52.462;16.898;2023-04-25T06:38:49;99272.43;;;10.66;100.00
32873;BME280;19224;52.462;16.898;2023-04-25T06:41:20;99258.22;;;10.85;100.00
32873;BME280;19224;52.462;16.898;2023-04-25T06:43:50;99265.08;;;10.83;100.00
32873;BME280;19224;52.462;16.898;2023-04-25T06:46:21;99261.97;;;10.82;100.00
32873;BME280;19224;52.462;16.898;2023-04-25T06:48:52;99284.59;;;10.80;100.00
32873;BME280;19224;52.462;16.898;2023-04-25T06:51:22;99266.22;;;10.86;100.00
32873;BME280;19224;52.462;16.898;2023-04-25T06:53:53;99265.23;;;10.66;100.00
32873;BME280;19224;52.462;16.898;2023-04-25T06:56:23;99263.99;;;10.86;100.00
32873;BME280;19224;52.462;16.898;2023-04-25T06:58:54;99265.53;;;10.83;100.00
32873;BME280;19224;52.462;16.898;2023-04-25T07:01:24;99268.63;;;10.91;100.00
32873;BME280;19224;52.462;16.898;2023-04-25T07:03:54;99262.09;;;11.02;100.00
32873;BME280;19224;52.462;16.898;2023-04-25T07:06:24;99269.11;;;10.97;100.00
32873;BME280;19224;52.462;16.898;2023-04-25T07:08:56;99265.34;;;10.86;100.00
32873;BME280;19224;52.462;16.898;2023-04-25T07:11:26;99262.85;;;11.04;100.00
32873;BME280;19224;52.462;16.898;2023-04-25T07:13:56;99261.89;;;11.12;100.00
32873;BME280;19224;52.462;16.898;2023-04-25T07:16:27;99263.43;;;11.23;100.00
32873;BME280;19224;52.462;16.898;2023-04-25T07:18:57;99266.31;;;11.06;100.00
32873;BME280;19224;52.462;16.898;2023-04-25T07:21:28;99273.59;;;11.32;100.00
32873;BME280;19224;52.462;16.898;2023-04-25T07:24:00;99270.72;;;11.21;100.00
32873;BME280;19224;52.462;16.898;2023-04-25T07:26:30;99274.47;;;11.32;100.00
32873;BME280;19224;52.462;16.898;2023-04-25T07:29:00;99283.12;;;11.44;98.93
32873;BME280;19224;52.462;16.898;2023-04-25T07:31:30;99281.89;;;11.36;98.46
32873;BME280;19224;52.462;16.898;2023-04-25T07:34:00;99276.64;;;11.54;99.06
32873;BME280;19224;52.462;16.898;2023-04-25T07:36:31;99278.78;;;11.63;97.57
32873;BME280;19224;52.462;16.898;2023-04-25T07:39:01;99274.61;;;11.71;97.23
32873;BME280;19224;52.462;16.898;2023-04-25T07:41:32;99276.83;;;11.79;96.39
32873;BME280;19224;52.462;16.898;2023-04-25T07:44:02;99273.04;;;11.81;96.30
32873;BME280;19224;52.462;16.898;2023-04-25T07:46:32;99284.03;;;11.85;96.93
32873;BME280;19224;52.462;16.898;2023-04-25T07:49:04;99280.80;;;11.59;97.66
32873;BME280;19224;52.462;16.898;2023-04-25T07:51:34;99285.69;;;11.74;97.95
32873;BME280;19224;52.462;16.898;2023-04-25T07:54:04;99274.90;;;11.74;96.41
32873;BME280;19224;52.462;16.898;2023-04-25T07:56:35;99273.77;;;11.64;97.57
32873;BME280;19224;52.462;16.898;2023-04-25T07:59:05;99281.01;;;11.63;96.77
32873;BME280;19224;52.462;16.898;2023-04-25T08:01:36;99281.30;;;11.45;97.72
32873;BME280;19224;52.462;16.898;2023-04-25T08:04:06;99281.47;;;11.70;95.87
32873;BME280;19224;52.462;16.898;2023-04-25T08:06:37;99285.73;;;11.60;96.60
32873;BME280;19224;52.462;16.898;2023-04-25T08:09:07;99277.53;;;11.94;95.51
32873;BME280;19224;52.462;16.898;2023-04-25T08:11:38;99287.67;;;12.10;93.63
32873;BME280;19224;52.462;16.898;2023-04-25T08:14:09;99283.13;;;12.18;94.01
32873;BME280;19224;52.462;16.898;2023-04-25T08:16:40;99281.80;;;12.11;94.47
32873;BME280;19224;52.462;16.898;2023-04-25T08:19:11;99283.84;;;12.27;93.26
32873;BME280;19224;52.462;16.898;2023-04-25T08:21:41;99289.80;;;12.32;93.70
32873;BME280;19224;52.462;16.898;2023-04-25T08:24:11;99295.53;;;11.94;95.06
32873;BME280;19224;52.462;16.898;2023-04-25T08:26:42;99291.23;;;12.18;93.00
32873;BME280;19224;52.462;16.898;2023-04-25T08:29:12;99299.11;;;12.21;91.85
32873;BME280;19224;52.462;16.898;2023-04-25T08:31:42;99293.63;;;12.22;91.96
32873;BME280;19224;52.462;16.898;2023-04-25T08:34:13;99311.58;;;12.09;93.01
32873;BME280;19224;52.462;16.898;2023-04-25T08:36:44;99306.56;;;12.10;91.09
32873;BME280;19224;52.462;16.898;2023-04-25T08:39:14;99316.22;;;12.07;92.39
32873;BME280;19224;52.462;16.898;2023-04-25T08:41:45;99302.92;;;12.11;92.52
32873;BME280;19224;52.462;16.898;2023-04-25T08:44:15;99302.12;;;12.16;93.36
32873;BME280;19224;52.462;16.898;2023-04-25T08:46:48;99302.34;;;12.33;92.52
32873;BME280;19224;52.462;16.898;2023-04-25T08:49:19;99299.80;;;12.17;93.13
32873;BME280;19224;52.462;16.898;2023-04-25T08:51:50;99305.93;;;12.46;91.56
32873;BME280;19224;52.462;16.898;2023-04-25T08:54:21;99313.42;;;11.76;94.47
32873;BME280;19224;52.462;16.898;2023-04-25T08:56:56;99306.87;;;11.80;94.71
32873;BME280;19224;52.462;16.898;2023-04-25T08:59:28;99312.61;;;11.94;94.04
32873;BME280;19224;52.462;16.898;2023-04-25T09:02:00;99309.23;;;12.24;91.90
32873;BME280;19224;52.462;16.898;2023-04-25T09:04:33;99314.94;;;11.87;92.73
32873;BME280;19224;52.462;16.898;2023-04-25T09:07:03;99309.47;;;12.07;93.10
32873;BME280;19224;52.462;16.898;2023-04-25T09:09:33;99315.62;;;12.16;92.32
32873;BME280;19224;52.462;16.898;2023-04-25T09:12:06;99318.09;;;12.19;92.60
32873;BME280;19224;52.462;16.898;2023-04-25T09:14:36;99316.20;;;12.53;88.65
32873;BME280;19224;52.462;16.898;2023-04-25T09:17:07;99333.39;;;12.84;86.72
32873;BME280;19224;52.462;16.898;2023-04-25T09:19:38;99333.84;;;12.78;87.15
32873;BME280;19224;52.462;16.898;2023-04-25T09:22:09;99343.01;;;12.76;88.20
32873;BME280;19224;52.462;16.898;2023-04-25T09:24:43;99337.56;;;12.63;90.36
32873;BME280;19224;52.462;16.898;2023-04-25T09:27:19;99342.30;;;12.47;88.47
32873;BME280;19224;52.462;16.898;2023-04-25T09:29:58;99337.41;;;12.40;88.38
32873;BME280;19224;52.462;16.898;2023-04-25T09:32:30;99330.73;;;12.45;87.99
32873;BME280;19224;52.462;16.898;2023-04-25T09:35:00;99337.74;;;12.48;88.26
32873;BME280;19224;52.462;16.898;2023-04-25T09:37:31;99336.02;;;12.47;87.82
32873;BME280;19224;52.462;16.898;2023-04-25T09:40:05;99348.88;;;12.75;85.42
32873;BME280;19224;52.462;16.898;2023-04-25T09:42:40;99342.47;;;12.83;86.57
32873;BME280;19224;52.462;16.898;2023-04-25T09:45:08;99351.91;;;12.90;87.77
32873;BME280;19224;52.462;16.898;2023-04-25T09:47:41;99347.34;;;12.78;88.55
32873;BME280;19224;52.462;16.898;2023-04-25T09:50:17;99348.20;;;12.79;86.59
32873;BME280;19224;52.462;16.898;2023-04-25T09:53:05;99341.94;;;12.78;85.52
32873;BME280;19224;52.462;16.898;2023-04-25T09:55:36;99336.59;;;13.03;84.68
32873;BME280;19224;52.462;16.898;2023-04-25T09:58:07;99339.40;;;12.82;86.38
32873;BME280;19224;52.462;16.898;2023-04-25T10:00:39;99343.95;;;13.01;84.20
32873;BME280;19224;52.462;16.898;2023-04-25T10:03:12;99344.86;;;12.95;85.28
32873;BME280;19224;52.462;16.898;2023-04-25T10:05:44;99361.39;;;13.03;83.89
32873;BME280;19224;52.462;16.898;2023-04-25T10:08:15;99345.94;;;12.85;85.12
32873;BME280;19224;52.462;16.898;2023-04-25T10:10:47;99355.95;;;12.71;87.55
32873;BME280;19224;52.462;16.898;2023-04-25T10:13:20;99362.47;;;12.61;86.70
32873;BME280;19224;52.462;16.898;2023-04-25T10:15:51;99356.57;;;12.42;85.40
32873;BME280;19224;52.462;16.898;2023-04-25T10:18:22;99365.27;;;12.40;85.74
32873;BME280;19224;52.462;16.898;2023-04-25T10:20:59;99371.05;;;12.41;85.78
32873;BME280;19224;52.462;16.898;2023-04-25T10:23:31;99351.55;;;12.43;83.60
32873;BME280;19224;52.462;16.898;2023-04-25T10:26:03;99362.84;;;12.50;84.02
32873;BME280;19224;52.462;16.898;2023-04-25T10:28:55;99361.86;;;12.83;82.46
32873;BME280;19224;52.462;16.898;2023-04-25T10:31:25;99355.02;;;12.84;82.52
32873;BME280;19224;52.462;16.898;2023-04-25T10:33:56;99359.57;;;12.84;82.86
32873;BME280;19224;52.462;16.898;2023-04-25T10:36:26;99362.71;;;12.90;83.35
32873;BME280;19224;52.462;16.898;2023-04-25T10:39:05;99359.22;;;12.88;83.13
32873;BME280;19224;52.462;16.898;2023-04-25T10:41:56;99363.03;;;12.86;83.91
32873;BME280;19224;52.462;16.898;2023-04-25T10:44:31;99354.64;;;12.83;81.05
32873;BME280;19224;52.462;16.898;2023-04-25T10:47:02;99366.20;;;12.85;80.86
32873;BME280;19224;52.462;16.898;2023-04-25T10:49:42;99360.06;;;12.76;80.96
32873;BME280;19224;52.462;16.898;2023-04-25T10:52:16;99355.10;;;12.70;83.28
32873;BME280;19224;52.462;16.898;2023-04-25T10:54:55;99355.81;;;12.40;83.28
32873;BME280;19224;52.462;16.898;2023-04-25T10:57:43;99350.27;;;12.29;83.67
32873;BME280;19224;52.462;16.898;2023-04-25T11:00:20;99347.62;;;12.61;83.43
32873;BME280;19224;52.462;16.898;2023-04-25T11:02:59;99352.00;;;12.96;81.69
32873;BME280;19224;52.462;16.898;2023-04-25T11:05:35;99354.39;;;13.25;80.35
32873;BME280;19224;52.462;16.898;2023-04-25T11:08:11;99351.52;;;13.34;78.55
32873;BME280;19224;52.462;16.898;2023-04-25T11:10:41;99360.09;;;13.08;75.64
32873;BME280;19224;52.462;16.898;2023-04-25T11:13:12;99359.23;;;13.20;76.38
32873;BME280;19224;52.462;16.898;2023-04-25T11:15:42;99359.91;;;13.36;76.44
32873;BME280;19224;52.462;16.898;2023-04-25T11:18:16;99349.60;;;13.84;76.22
32873;BME280;19224;52.462;16.898;2023-04-25T11:20:48;99351.34;;;14.03;75.67
32873;BME280;19224;52.462;16.898;2023-04-25T11:23:19;99350.40;;;14.10;75.51
32873;BME280;19224;52.462;16.898;2023-04-25T11:25:50;99348.26;;;14.38;74.07
32873;BME280;19224;52.462;16.898;2023-04-25T11:28:22;99341.48;;;14.61;71.45
32873;BME280;19224;52.462;16.898;2023-04-25T11:30:54;99343.40;;;14.54;70.82
32873;BME280;19224;52.462;16.898;2023-04-25T11:33:25;99350.14;;;14.48;70.97
32873;BME280;19224;52.462;16.898;2023-04-25T11:35:56;99357.27;;;14.08;69.62
32873;BME280;19224;52.462;16.898;2023-04-25T11:38:27;99352.64;;;13.62;72.94
32873;BME280;19224;52.462;16.898;2023-04-25T11:40:58;99358.38;;;13.57;74.81
32873;BME280;19224;52.462;16.898;2023-04-25T11:43:28;99365.98;;;13.70;75.32
32873;BME280;19224;52.462;16.898;2023-04-25T11:45:59;99366.96;;;13.87;74.42
32873;BME280;19224;52.462;16.898;2023-04-25T11:48:39;99371.45;;;13.63;75.70
32873;BME280;19224;52.462;16.898;2023-04-25T11:51:09;99369.64;;;13.26;77.95
32873;BME280;19224;52.462;16.898;2023-04-25T11:53:42;99374.17;;;13.13;78.62
32873;BME280;19224;52.462;16.898;2023-04-25T11:56:13;99383.70;;;12.99;78.60
32873;BME280;19224;52.462;16.898;2023-04-25T11:59:04;99370.56;;;12.81;78.01
32873;BME280;19224;52.462;16.898;2023-04-25T12:01:38;99371.29;;;12.90;79.86
32873;BME280;19224;52.462;16.898;2023-04-25T12:04:18;99376.23;;;13.10;80.65
32873;BME280;19224;52.462;16.898;2023-04-25T12:06:53;99367.84;;;12.95;82.49
32873;BME280;19224;52.462;16.898;2023-04-25T12:09:32;99365.35;;;13.04;82.52
32873;BME280;19224;52.462;16.898;2023-04-25T12:12:03;99383.27;;;13.12;83.51
32873;BME280;19224;52.462;16.898;2023-04-25T12:14:36;99378.52;;;12.96;84.86
32873;BME280;19224;52.462;16.898;2023-04-25T12:17:06;99383.17;;;12.94;84.14
32873;BME280;19224;52.462;16.898;2023-04-25T12:19:38;99372.81;;;13.26;80.66
32873;BME280;19224;52.462;16.898;2023-04-25T12:22:23;99375.30;;;13.16;79.81
32873;BME280;19224;52.462;16.898;2023-04-25T12:24:53;99391.31;;;13.07;80.63
32873;BME280;19224;52.462;16.898;2023-04-25T12:27:26;99376.60;;;12.91;82.40
32873;BME280;19224;52.462;16.898;2023-04-25T12:29:57;99395.55;;;13.04;80.12
32873;BME280;19224;52.462;16.898;2023-04-25T12:32:29;99384.08;;;13.20;80.46
32873;BME280;19224;52.462;16.898;2023-04-25T12:35:00;99403.70;;;13.16;81.50
32873;BME280;19224;52.462;16.898;2023-04-25T12:37:31;99399.14;;;13.04;82.55
32873;BME280;19224;52.462;16.898;2023-04-25T12:40:01;99405.05;;;13.16;82.64
32873;BME280;19224;52.462;16.898;2023-04-25T12:42:33;99399.64;;;13.16;83.66
32873;BME280;19224;52.462;16.898;2023-04-25T12:45:04;99397.79;;;13.04;84.65
32873;BME280;19224;52.462;16.898;2023-04-25T12:47:35;99400.02;;;13.42;83.83
32873;BME280;19224;52.462;16.898;2023-04-25T12:50:09;99396.12;;;13.71;80.96
32873;BME280;19224;52.462;16.898;2023-04-25T12:52:38;99395.94;;;13.92;80.64
32873;BME280;19224;52.462;16.898;2023-04-25T12:55:08;99404.09;;;13.67;82.44
32873;BME280;19224;52.462;16.898;2023-04-25T12:57:39;99393.05;;;13.33;83.26
32873;BME280;19224;52.462;16.898;2023-04-25T13:00:10;99385.48;;;13.63;83.04
32873;BME280;19224;52.462;16.898;2023-04-25T13:02:42;99378.56;;;13.46;82.93
32873;BME280;19224;52.462;16.898;2023-04-25T13:05:19;99391.64;;;13.52;83.11
32873;BME280;19224;52.462;16.898;2023-04-25T13:07:46;99375.78;;;13.66;82.36
32873;BME280;19224;52.462;16.898;2023-04-25T13:10:17;99376.45;;;13.32;83.88